sensor_id;sensor_type;location;lat;lon;timestamp;P1;durP1;ratioP1;P2;durP2;ratioP2
27533;SDS011;14973;51.460;7.008;2023-07-09T00:02:11;11.35;;;5.70;;
27533;SDS011;14973;51.460;7.008;2023-07-09T00:04:37;13.25;;;5.40;;
27533;SDS011;14973;51.460;7.008;2023-07-09T00:07:03;9.48;;;5.78;;
27533;SDS011;14973;51.460;7.008;2023-07-09T00:09:29;13.50;;;5.93;;
27533;SDS011;14973;51.460;7.008;2023-07-09T00:11:56;11.40;;;5.63;;
27533;SDS011;14973;51.460;7.008;2023-07-09T00:14:21;13.75;;;5.30;;
27533;SDS011;14973;51.460;7.008;2023-07-09T00:16:47;11.60;;;6.13;;
27533;SDS011;14973;51.460;7.008;2023-07-09T00:19:14;14.50;;;6.30;;
27533;SDS011;14973;51.460;7.008;2023-07-09T00:21:45;13.15;;;5.57;;
27533;SDS011;14973;51.460;7.008;2023-07-09T00:24:13;16.75;;;5.75;;
27533;SDS011;14973;51.460;7.008;2023-07-09T00:26:38;18.83;;;6.18;;
27533;SDS011;14973;51.460;7.008;2023-07-09T00:29:11;11.63;;;5.55;;
27533;SDS011;14973;51.460;7.008;2023-07-09T00:31:38;10.10;;;5.50;;
27533;SDS011;14973;51.460;7.008;2023-07-09T00:34:06;8.98;;;5.18;;
27533;SDS011;14973;51.460;7.008;2023-07-09T00:36:33;10.43;;;5.60;;
27533;SDS011;14973;51.460;7.008;2023-07-09T00:38:59;14.05;;;5.95;;
27533;SDS011;14973;51.460;7.008;2023-07-09T00:41:30;13.25;;;5.30;;
27533;SDS011;14973;51.460;7.008;2023-07-09T00:43:58;14.48;;;5.97;;
27533;SDS011;14973;51.460;7.008;2023-07-09T00:49:13;10.13;;;5.78;;
27533;SDS011;14973;51.460;7.008;2023-07-09T00:51:42;13.75;;;5.93;;
27533;SDS011;14973;51.460;7.008;2023-07-09T00:54:23;11.95;;;5.50;;
27533;SDS011;14973;51.460;7.008;2023-07-09T00:56:57;10.32;;;5.53;;
27533;SDS011;14973;51.460;7.008;2023-07-09T00:59:31;11.82;;;6.18;;
27533;SDS011;14973;51.460;7.008;2023-07-09T01:01:58;15.25;;;6.00;;
27533;SDS011;14973;51.460;7.008;2023-07-09T01:04:25;17.75;;;5.93;;
27533;SDS011;14973;51.460;7.008;2023-07-09T01:06:53;11.32;;;5.80;;
27533;SDS011;14973;51.460;7.008;2023-07-09T01:09:23;12.30;;;6.38;;
27533;SDS011;14973;51.460;7.008;2023-07-09T01:11:49;15.68;;;6.25;;
27533;SDS011;14973;51.460;7.008;2023-07-09T01:14:16;15.93;;;6.90;;
27533;SDS011;14973;51.460;7.008;2023-07-09T01:16:50;12.27;;;5.22;;
27533;SDS011;14973;51.460;7.008;2023-07-09T01:19:22;11.63;;;6.07;;
27533;SDS011;14973;51.460;7.008;2023-07-09T01:21:51;15.45;;;6.65;;
27533;SDS011;14973;51.460;7.008;2023-07-09T01:27:26;15.07;;;6.45;;
27533;SDS011;14973;51.460;7.008;2023-07-09T01:29:58;14.60;;;5.63;;
27533;SDS011;14973;51.460;7.008;2023-07-09T01:32:25;10.85;;;6.05;;
27533;SDS011;14973;51.460;7.008;2023-07-09T01:34:53;15.07;;;5.97;;
27533;SDS011;14973;51.460;7.008;2023-07-09T01:37:23;12.02;;;6.13;;
27533;SDS011;14973;51.460;7.008;2023-07-09T01:39:51;10.90;;;6.03;;
27533;SDS011;14973;51.460;7.008;2023-07-09T01:42:18;16.58;;;6.22;;
27533;SDS011;14973;51.460;7.008;2023-07-09T01:44:47;14.75;;;6.18;;
27533;SDS011;14973;51.460;7.008;2023-07-09T01:47:14;14.13;;;6.30;;
27533;SDS011;14973;51.460;7.008;2023-07-09T01:49:40;13.57;;;6.55;;
27533;SDS011;14973;51.460;7.008;2023-07-09T01:52:06;14.90;;;6.75;;
27533;SDS011;14973;51.460;7.008;2023-07-09T01:54:35;16.92;;;5.88;;
27533;SDS011;14973;51.460;7.008;2023-07-09T01:57:14;11.52;;;6.22;;
27533;SDS011;14973;51.460;7.008;2023-07-09T01:59:44;15.55;;;6.22;;
27533;SDS011;14973;51.460;7.008;2023-07-09T02:02:10;11.43;;;6.53;;
27533;SDS011;14973;51.460;7.008;2023-07-09T02:04:43;15.38;;;6.43;;
27533;SDS011;14973;51.460;7.008;2023-07-09T02:07:10;16.15;;;6.68;;
27533;SDS011;14973;51.460;7.008;2023-07-09T02:09:35;17.15;;;6.60;;
27533;SDS011;14973;51.460;7.008;2023-07-09T02:12:01;11.60;;;6.28;;
27533;SDS011;14973;51.460;7.008;2023-07-09T02:14:27;14.52;;;6.70;;
27533;SDS011;14973;51.460;7.008;2023-07-09T02:16:53;13.65;;;6.43;;
27533;SDS011;14973;51.460;7.008;2023-07-09T02:19:18;16.83;;;8.32;;
27533;SDS011;14973;51.460;7.008;2023-07-09T02:21:44;15.15;;;6.72;;
27533;SDS011;14973;51.460;7.008;2023-07-09T02:24:09;12.98;;;7.07;;
27533;SDS011;14973;51.460;7.008;2023-07-09T02:26:35;17.25;;;7.15;;
27533;SDS011;14973;51.460;7.008;2023-07-09T02:29:00;13.30;;;6.60;;
27533;SDS011;14973;51.460;7.008;2023-07-09T02:31:26;22.70;;;7.25;;
27533;SDS011;14973;51.460;7.008;2023-07-09T02:33:54;15.80;;;7.10;;
27533;SDS011;14973;51.460;7.008;2023-07-09T02:36:21;18.20;;;6.88;;
27533;SDS011;14973;51.460;7.008;2023-07-09T02:38:46;12.95;;;6.53;;
27533;SDS011;14973;51.460;7.008;2023-07-09T02:41:12;19.85;;;7.00;;
27533;SDS011;14973;51.460;7.008;2023-07-09T02:43:37;16.95;;;7.13;;
27533;SDS011;14973;51.460;7.008;2023-07-09T02:46:03;13.77;;;7.60;;
27533;SDS011;14973;51.460;7.008;2023-07-09T02:48:28;14.23;;;7.28;;
27533;SDS011;14973;51.460;7.008;2023-07-09T02:50:54;19.83;;;7.20;;
27533;SDS011;14973;51.460;7.008;2023-07-09T02:53:19;15.43;;;7.22;;
27533;SDS011;14973;51.460;7.008;2023-07-09T02:55:46;16.65;;;7.22;;
27533;SDS011;14973;51.460;7.008;2023-07-09T02:58:11;14.07;;;7.30;;
27533;SDS011;14973;51.460;7.008;2023-07-09T03:00:37;14.35;;;7.07;;
27533;SDS011;14973;51.460;7.008;2023-07-09T03:03:02;13.10;;;6.82;;
27533;SDS011;14973;51.460;7.008;2023-07-09T03:05:28;22.20;;;6.60;;
27533;SDS011;14973;51.460;7.008;2023-07-09T03:07:53;13.57;;;6.70;;
27533;SDS011;14973;51.460;7.008;2023-07-09T03:10:19;15.75;;;6.90;;
27533;SDS011;14973;51.460;7.008;2023-07-09T03:12:44;14.75;;;7.20;;
27533;SDS011;14973;51.460;7.008;2023-07-09T03:15:11;13.52;;;7.28;;
27533;SDS011;14973;51.460;7.008;2023-07-09T03:17:36;13.38;;;7.07;;
27533;SDS011;14973;51.460;7.008;2023-07-09T03:20:02;13.80;;;7.40;;
27533;SDS011;14973;51.460;7.008;2023-07-09T03:22:29;11.77;;;6.68;;
27533;SDS011;14973;51.460;7.008;2023-07-09T03:24:54;16.67;;;7.15;;
27533;SDS011;14973;51.460;7.008;2023-07-09T03:27:20;19.48;;;7.78;;
27533;SDS011;14973;51.460;7.008;2023-07-09T03:29:45;16.23;;;7.32;;
27533;SDS011;14973;51.460;7.008;2023-07-09T03:32:11;16.02;;;7.43;;
27533;SDS011;14973;51.460;7.008;2023-07-09T03:34:37;12.55;;;7.60;;
27533;SDS011;14973;51.460;7.008;2023-07-09T03:37:02;12.25;;;7.28;;
27533;SDS011;14973;51.460;7.008;2023-07-09T03:39:28;11.35;;;7.32;;
27533;SDS011;14973;51.460;7.008;2023-07-09T03:41:53;11.40;;;6.43;;
27533;SDS011;14973;51.460;7.008;2023-07-09T03:44:19;14.48;;;7.47;;
27533;SDS011;14973;51.460;7.008;2023-07-09T03:46:44;15.90;;;8.15;;
27533;SDS011;14973;51.460;7.008;2023-07-09T03:49:10;19.10;;;7.78;;
27533;SDS011;14973;51.460;7.008;2023-07-09T03:51:35;14.77;;;7.22;;
27533;SDS011;14973;51.460;7.008;2023-07-09T03:54:01;13.20;;;7.10;;
27533;SDS011;14973;51.460;7.008;2023-07-09T03:56:27;23.42;;;7.63;;
27533;SDS011;14973;51.460;7.008;2023-07-09T03:58:52;16.15;;;8.43;;
27533;SDS011;14973;51.460;7.008;2023-07-09T04:01:18;10.55;;;6.93;;
27533;SDS011;14973;51.460;7.008;2023-07-09T04:03:43;14.25;;;7.35;;
27533;SDS011;14973;51.460;7.008;2023-07-09T04:06:09;20.10;;;8.07;;
27533;SDS011;14973;51.460;7.008;2023-07-09T04:08:35;16.63;;;8.23;;
27533;SDS011;14973;51.460;7.008;2023-07-09T04:11:01;18.55;;;8.50;;
27533;SDS011;14973;51.460;7.008;2023-07-09T04:13:27;16.02;;;7.38;;
27533;SDS011;14973;51.460;7.008;2023-07-09T04:15:53;17.23;;;7.78;;
27533;SDS011;14973;51.460;7.008;2023-07-09T04:18:20;14.15;;;7.68;;
27533;SDS011;14973;51.460;7.008;2023-07-09T04:20:48;11.80;;;6.80;;
27533;SDS011;14973;51.460;7.008;2023-07-09T04:23:15;18.17;;;7.20;;
27533;SDS011;14973;51.460;7.008;2023-07-09T04:25:41;17.63;;;7.63;;
27533;SDS011;14973;51.460;7.008;2023-07-09T04:28:07;21.63;;;7.45;;
27533;SDS011;14973;51.460;7.008;2023-07-09T04:30:32;14.60;;;7.72;;
27533;SDS011;14973;51.460;7.008;2023-07-09T04:32:58;13.88;;;7.00;;
27533;SDS011;14973;51.460;7.008;2023-07-09T04:35:24;12.20;;;6.97;;
27533;SDS011;14973;51.460;7.008;2023-07-09T04:37:49;16.48;;;7.90;;
27533;SDS011;14973;51.460;7.008;2023-07-09T04:40:17;12.55;;;6.90;;
27533;SDS011;14973;51.460;7.008;2023-07-09T04:42:43;21.17;;;7.30;;
27533;SDS011;14973;51.460;7.008;2023-07-09T04:45:09;18.45;;;7.30;;
27533;SDS011;14973;51.460;7.008;2023-07-09T04:47:36;17.80;;;6.72;;
27533;SDS011;14973;51.460;7.008;2023-07-09T04:50:03;11.98;;;6.75;;
27533;SDS011;14973;51.460;7.008;2023-07-09T04:52:30;15.18;;;6.97;;
27533;SDS011;14973;51.460;7.008;2023-07-09T04:54:56;14.20;;;6.57;;
27533;SDS011;14973;51.460;7.008;2023-07-09T04:57:21;13.63;;;6.45;;
27533;SDS011;14973;51.460;7.008;2023-07-09T04:59:47;14.07;;;7.43;;
27533;SDS011;14973;51.460;7.008;2023-07-09T05:02:13;10.73;;;6.63;;
27533;SDS011;14973;51.460;7.008;2023-07-09T05:04:39;15.18;;;6.38;;
27533;SDS011;14973;51.460;7.008;2023-07-09T05:07:05;11.40;;;6.93;;
27533;SDS011;14973;51.460;7.008;2023-07-09T05:09:31;11.30;;;6.47;;
27533;SDS011;14973;51.460;7.008;2023-07-09T05:11:57;15.63;;;5.97;;
27533;SDS011;14973;51.460;7.008;2023-07-09T05:14:25;11.48;;;6.90;;
27533;SDS011;14973;51.460;7.008;2023-07-09T05:16:51;12.60;;;6.50;;
27533;SDS011;14973;51.460;7.008;2023-07-09T05:19:18;14.68;;;6.22;;
27533;SDS011;14973;51.460;7.008;2023-07-09T05:21:44;13.57;;;6.03;;
27533;SDS011;14973;51.460;7.008;2023-07-09T05:24:09;13.23;;;5.95;;
27533;SDS011;14973;51.460;7.008;2023-07-09T05:26:35;11.13;;;5.72;;
27533;SDS011;14973;51.460;7.008;2023-07-09T05:29:02;11.85;;;5.78;;
27533;SDS011;14973;51.460;7.008;2023-07-09T05:31:31;12.98;;;5.90;;
27533;SDS011;14973;51.460;7.008;2023-07-09T05:33:58;17.20;;;6.63;;
27533;SDS011;14973;51.460;7.008;2023-07-09T05:36:25;9.25;;;6.28;;
27533;SDS011;14973;51.460;7.008;2023-07-09T05:38:51;21.70;;;6.28;;
27533;SDS011;14973;51.460;7.008;2023-07-09T05:41:17;10.95;;;5.68;;
27533;SDS011;14973;51.460;7.008;2023-07-09T05:43:43;15.98;;;6.85;;
27533;SDS011;14973;51.460;7.008;2023-07-09T05:46:09;10.23;;;6.10;;
27533;SDS011;14973;51.460;7.008;2023-07-09T05:48:35;20.90;;;11.07;;
27533;SDS011;14973;51.460;7.008;2023-07-09T05:51:01;14.27;;;9.60;;
27533;SDS011;14973;51.460;7.008;2023-07-09T05:53:26;11.00;;;5.53;;
27533;SDS011;14973;51.460;7.008;2023-07-09T05:55:52;12.30;;;5.82;;
27533;SDS011;14973;51.460;7.008;2023-07-09T05:58:19;11.70;;;6.00;;
27533;SDS011;14973;51.460;7.008;2023-07-09T06:00:45;16.42;;;5.90;;
27533;SDS011;14973;51.460;7.008;2023-07-09T06:03:10;11.20;;;5.60;;
27533;SDS011;14973;51.460;7.008;2023-07-09T06:05:36;9.82;;;5.93;;
27533;SDS011;14973;51.460;7.008;2023-07-09T06:08:02;12.98;;;5.95;;
27533;SDS011;14973;51.460;7.008;2023-07-09T06:10:29;12.30;;;5.68;;
27533;SDS011;14973;51.460;7.008;2023-07-09T06:12:55;10.52;;;5.30;;
27533;SDS011;14973;51.460;7.008;2023-07-09T06:15:23;11.65;;;5.20;;
27533;SDS011;14973;51.460;7.008;2023-07-09T06:17:50;11.35;;;5.40;;
27533;SDS011;14973;51.460;7.008;2023-07-09T06:20:15;10.48;;;5.75;;
27533;SDS011;14973;51.460;7.008;2023-07-09T06:22:41;6.95;;;5.07;;
27533;SDS011;14973;51.460;7.008;2023-07-09T06:25:06;14.52;;;5.95;;
27533;SDS011;14973;51.460;7.008;2023-07-09T06:27:32;14.10;;;6.18;;
27533;SDS011;14973;51.460;7.008;2023-07-09T06:29:58;9.27;;;6.10;;
27533;SDS011;14973;51.460;7.008;2023-07-09T06:32:24;13.57;;;5.55;;
27533;SDS011;14973;51.460;7.008;2023-07-09T06:34:49;7.78;;;5.25;;
27533;SDS011;14973;51.460;7.008;2023-07-09T06:37:15;15.20;;;6.03;;
27533;SDS011;14973;51.460;7.008;2023-07-09T06:39:41;17.30;;;6.00;;
27533;SDS011;14973;51.460;7.008;2023-07-09T06:42:06;10.40;;;5.20;;
27533;SDS011;14973;51.460;7.008;2023-07-09T06:44:32;8.55;;;5.90;;
27533;SDS011;14973;51.460;7.008;2023-07-09T06:46:57;12.85;;;5.03;;
27533;SDS011;14973;51.460;7.008;2023-07-09T06:49:23;11.30;;;5.85;;
27533;SDS011;14973;51.460;7.008;2023-07-09T06:51:48;10.45;;;5.90;;
27533;SDS011;14973;51.460;7.008;2023-07-09T06:54:14;14.52;;;6.88;;
27533;SDS011;14973;51.460;7.008;2023-07-09T06:56:40;12.73;;;5.28;;
27533;SDS011;14973;51.460;7.008;2023-07-09T06:59:06;13.18;;;5.20;;
27533;SDS011;14973;51.460;7.008;2023-07-09T07:01:32;9.75;;;5.47;;
27533;SDS011;14973;51.460;7.008;2023-07-09T07:03:57;11.10;;;5.85;;
27533;SDS011;14973;51.460;7.008;2023-07-09T07:06:23;13.88;;;5.63;;
27533;SDS011;14973;51.460;7.008;2023-07-09T07:08:48;13.98;;;5.40;;
27533;SDS011;14973;51.460;7.008;2023-07-09T07:11:14;8.25;;;5.15;;
27533;SDS011;14973;51.460;7.008;2023-07-09T07:13:40;11.10;;;5.93;;
27533;SDS011;14973;51.460;7.008;2023-07-09T07:16:08;9.35;;;5.85;;
27533;SDS011;14973;51.460;7.008;2023-07-09T07:18:35;12.40;;;5.15;;
27533;SDS011;14973;51.460;7.008;2023-07-09T07:21:01;10.07;;;5.35;;
27533;SDS011;14973;51.460;7.008;2023-07-09T07:23:28;12.60;;;5.70;;
27533;SDS011;14973;51.460;7.008;2023-07-09T07:25:54;15.25;;;5.88;;
27533;SDS011;14973;51.460;7.008;2023-07-09T07:28:20;16.15;;;5.60;;
27533;SDS011;14973;51.460;7.008;2023-07-09T07:30:45;11.80;;;5.13;;
27533;SDS011;14973;51.460;7.008;2023-07-09T07:33:13;10.10;;;5.32;;
27533;SDS011;14973;51.460;7.008;2023-07-09T07:35:40;10.88;;;5.25;;
27533;SDS011;14973;51.460;7.008;2023-07-09T07:38:06;10.18;;;5.68;;
27533;SDS011;14973;51.460;7.008;2023-07-09T07:40:32;19.00;;;5.75;;
27533;SDS011;14973;51.460;7.008;2023-07-09T07:42:57;12.52;;;8.43;;
27533;SDS011;14973;51.460;7.008;2023-07-09T07:45:23;9.13;;;5.80;;
27533;SDS011;14973;51.460;7.008;2023-07-09T07:47:49;12.27;;;5.40;;
27533;SDS011;14973;51.460;7.008;2023-07-09T07:50:17;10.50;;;5.25;;
27533;SDS011;14973;51.460;7.008;2023-07-09T07:52:42;12.27;;;5.93;;
27533;SDS011;14973;51.460;7.008;2023-07-09T07:55:08;10.73;;;6.38;;
27533;SDS011;14973;51.460;7.008;2023-07-09T07:57:34;10.85;;;5.63;;
27533;SDS011;14973;51.460;7.008;2023-07-09T08:00:00;10.65;;;5.68;;
27533;SDS011;14973;51.460;7.008;2023-07-09T08:02:25;9.90;;;6.28;;
27533;SDS011;14973;51.460;7.008;2023-07-09T08:04:51;9.13;;;5.40;;
27533;SDS011;14973;51.460;7.008;2023-07-09T08:07:17;8.02;;;5.28;;
27533;SDS011;14973;51.460;7.008;2023-07-09T08:09:43;11.27;;;5.45;;
27533;SDS011;14973;51.460;7.008;2023-07-09T08:12:10;14.60;;;6.38;;
27533;SDS011;14973;51.460;7.008;2023-07-09T08:14:37;14.13;;;5.85;;
27533;SDS011;14973;51.460;7.008;2023-07-09T08:17:04;12.82;;;5.47;;
27533;SDS011;14973;51.460;7.008;2023-07-09T08:19:31;11.98;;;5.55;;
27533;SDS011;14973;51.460;7.008;2023-07-09T08:21:57;12.15;;;6.68;;
27533;SDS011;14973;51.460;7.008;2023-07-09T08:24:22;12.70;;;6.00;;
27533;SDS011;14973;51.460;7.008;2023-07-09T08:26:48;10.15;;;5.60;;
27533;SDS011;14973;51.460;7.008;2023-07-09T08:29:14;16.48;;;6.20;;
27533;SDS011;14973;51.460;7.008;2023-07-09T08:31:39;9.88;;;6.10;;
27533;SDS011;14973;51.460;7.008;2023-07-09T08:34:06;7.63;;;5.45;;
27533;SDS011;14973;51.460;7.008;2023-07-09T08:36:32;14.82;;;6.10;;
27533;SDS011;14973;51.460;7.008;2023-07-09T08:39:00;11.15;;;6.40;;
27533;SDS011;14973;51.460;7.008;2023-07-09T08:49:43;9.25;;;5.78;;
27533;SDS011;14973;51.460;7.008;2023-07-09T08:52:21;13.48;;;5.63;;
27533;SDS011;14973;51.460;7.008;2023-07-09T08:55:14;10.57;;;5.53;;
27533;SDS011;14973;51.460;7.008;2023-07-09T08:57:45;11.35;;;5.63;;
27533;SDS011;14973;51.460;7.008;2023-07-09T09:00:20;14.65;;;5.55;;
27533;SDS011;14973;51.460;7.008;2023-07-09T09:03:00;7.40;;;5.63;;
27533;SDS011;14973;51.460;7.008;2023-07-09T09:05:37;13.30;;;5.43;;
27533;SDS011;14973;51.460;7.008;2023-07-09T09:08:13;9.75;;;5.25;;
27533;SDS011;14973;51.460;7.008;2023-07-09T09:10:52;11.38;;;5.45;;
27533;SDS011;14973;51.460;7.008;2023-07-09T09:13:45;11.18;;;5.13;;
27533;SDS011;14973;51.460;7.008;2023-07-09T09:16:44;8.68;;;5.60;;
27533;SDS011;14973;51.460;7.008;2023-07-09T09:19:06;11.88;;;5.22;;
27533;SDS011;14973;51.460;7.008;2023-07-09T09:21:48;11.55;;;5.15;;
27533;SDS011;14973;51.460;7.008;2023-07-09T09:24:26;13.93;;;5.90;;
27533;SDS011;14973;51.460;7.008;2023-07-09T09:27:03;10.88;;;5.60;;
27533;SDS011;14973;51.460;7.008;2023-07-09T09:29:28;10.90;;;5.38;;
27533;SDS011;14973;51.460;7.008;2023-07-09T09:31:55;10.70;;;4.97;;
27533;SDS011;14973;51.460;7.008;2023-07-09T09:34:24;10.38;;;4.82;;
27533;SDS011;14973;51.460;7.008;2023-07-09T09:36:52;8.80;;;5.57;;
27533;SDS011;14973;51.460;7.008;2023-07-09T09:39:18;9.90;;;4.82;;
27533;SDS011;14973;51.460;7.008;2023-07-09T09:41:45;13.20;;;6.05;;
27533;SDS011;14973;51.460;7.008;2023-07-09T09:44:21;11.38;;;5.45;;
27533;SDS011;14973;51.460;7.008;2023-07-09T09:46:51;11.32;;;5.00;;
27533;SDS011;14973;51.460;7.008;2023-07-09T09:49:17;11.52;;;5.05;;
27533;SDS011;14973;51.460;7.008;2023-07-09T09:51:44;11.38;;;5.10;;
27533;SDS011;14973;51.460;7.008;2023-07-09T09:54:21;11.50;;;4.47;;
27533;SDS011;14973;51.460;7.008;2023-07-09T09:56:52;8.85;;;5.00;;
27533;SDS011;14973;51.460;7.008;2023-07-09T09:59:27;7.78;;;4.40;;
27533;SDS011;14973;51.460;7.008;2023-07-09T10:01:57;7.97;;;4.30;;
27533;SDS011;14973;51.460;7.008;2023-07-09T10:04:26;8.07;;;4.78;;
27533;SDS011;14973;51.460;7.008;2023-07-09T10:06:56;12.45;;;4.53;;
27533;SDS011;14973;51.460;7.008;2023-07-09T10:09:43;8.60;;;4.90;;
27533;SDS011;14973;51.460;7.008;2023-07-09T10:15:01;9.55;;;4.18;;
27533;SDS011;14973;51.460;7.008;2023-07-09T10:22:55;11.55;;;5.38;;
27533;SDS011;14973;51.460;7.008;2023-07-09T10:25:33;15.75;;;4.63;;
27533;SDS011;14973;51.460;7.008;2023-07-09T10:36:55;11.50;;;4.95;;
27533;SDS011;14973;51.460;7.008;2023-07-09T10:39:46;10.55;;;5.00;;
27533;SDS011;14973;51.460;7.008;2023-07-09T10:45:14;13.02;;;6.30;;
27533;SDS011;14973;51.460;7.008;2023-07-09T10:47:49;12.25;;;6.05;;
27533;SDS011;14973;51.460;7.008;2023-07-09T10:50:22;13.75;;;4.78;;
27533;SDS011;14973;51.460;7.008;2023-07-09T10:52:54;14.73;;;5.28;;
27533;SDS011;14973;51.460;7.008;2023-07-09T10:55:32;8.23;;;4.40;;
27533;SDS011;14973;51.460;7.008;2023-07-09T10:58:05;6.70;;;4.03;;
27533;SDS011;14973;51.460;7.008;2023-07-09T11:00:37;12.02;;;4.53;;
27533;SDS011;14973;51.460;7.008;2023-07-09T11:03:15;7.80;;;3.90;;
27533;SDS011;14973;51.460;7.008;2023-07-09T11:06:04;10.77;;;3.83;;
27533;SDS011;14973;51.460;7.008;2023-07-09T11:08:42;8.75;;;4.47;;
27533;SDS011;14973;51.460;7.008;2023-07-09T11:11:25;12.85;;;4.40;;
27533;SDS011;14973;51.460;7.008;2023-07-09T11:14:00;11.20;;;4.22;;
27533;SDS011;14973;51.460;7.008;2023-07-09T11:16:34;12.00;;;5.83;;
27533;SDS011;14973;51.460;7.008;2023-07-09T11:19:04;14.65;;;7.70;;
27533;SDS011;14973;51.460;7.008;2023-07-09T11:21:32;14.32;;;4.43;;
27533;SDS011;14973;51.460;7.008;2023-07-09T11:23:58;10.45;;;4.00;;
27533;SDS011;14973;51.460;7.008;2023-07-09T11:26:26;8.05;;;3.88;;
27533;SDS011;14973;51.460;7.008;2023-07-09T11:28:54;9.80;;;4.60;;
27533;SDS011;14973;51.460;7.008;2023-07-09T11:31:41;13.73;;;4.32;;
27533;SDS011;14973;51.460;7.008;2023-07-09T11:34:14;16.17;;;4.85;;
27533;SDS011;14973;51.460;7.008;2023-07-09T11:39:21;12.85;;;4.65;;
27533;SDS011;14973;51.460;7.008;2023-07-09T11:41:52;9.85;;;4.30;;
27533;SDS011;14973;51.460;7.008;2023-07-09T11:44:19;7.53;;;4.10;;
27533;SDS011;14973;51.460;7.008;2023-07-09T11:49:17;11.32;;;4.32;;
27533;SDS011;14973;51.460;7.008;2023-07-09T11:51:46;18.20;;;4.72;;
27533;SDS011;14973;51.460;7.008;2023-07-09T11:54:17;7.72;;;4.75;;
27533;SDS011;14973;51.460;7.008;2023-07-09T11:56:52;9.25;;;4.38;;
27533;SDS011;14973;51.460;7.008;2023-07-09T11:59:22;7.75;;;4.30;;
27533;SDS011;14973;51.460;7.008;2023-07-09T12:01:47;9.40;;;4.40;;
27533;SDS011;14973;51.460;7.008;2023-07-09T12:04:18;13.90;;;4.20;;
27533;SDS011;14973;51.460;7.008;2023-07-09T12:06:46;13.35;;;4.10;;
27533;SDS011;14973;51.460;7.008;2023-07-09T12:09:20;7.15;;;3.70;;
27533;SDS011;14973;51.460;7.008;2023-07-09T12:11:47;5.78;;;3.95;;
27533;SDS011;14973;51.460;7.008;2023-07-09T12:14:15;8.07;;;4.00;;
27533;SDS011;14973;51.460;7.008;2023-07-09T12:16:43;13.20;;;3.78;;
27533;SDS011;14973;51.460;7.008;2023-07-09T12:19:11;8.15;;;4.78;;
27533;SDS011;14973;51.460;7.008;2023-07-09T12:21:39;8.15;;;4.63;;
27533;SDS011;14973;51.460;7.008;2023-07-09T12:24:27;16.23;;;4.35;;
27533;SDS011;14973;51.460;7.008;2023-07-09T12:26:59;6.82;;;4.00;;
27533;SDS011;14973;51.460;7.008;2023-07-09T12:29:30;8.93;;;3.90;;
27533;SDS011;14973;51.460;7.008;2023-07-09T12:32:00;11.73;;;4.13;;
27533;SDS011;14973;51.460;7.008;2023-07-09T12:34:31;8.77;;;3.67;;
27533;SDS011;14973;51.460;7.008;2023-07-09T12:36:57;14.35;;;4.13;;
27533;SDS011;14973;51.460;7.008;2023-07-09T12:39:24;16.05;;;4.15;;
27533;SDS011;14973;51.460;7.008;2023-07-09T12:41:54;10.70;;;4.15;;
27533;SDS011;14973;51.460;7.008;2023-07-09T12:44:22;13.52;;;4.47;;
27533;SDS011;14973;51.460;7.008;2023-07-09T12:46:49;13.57;;;4.65;;
27533;SDS011;14973;51.460;7.008;2023-07-09T12:49:27;13.45;;;4.78;;
27533;SDS011;14973;51.460;7.008;2023-07-09T12:51:54;8.18;;;4.38;;
27533;SDS011;14973;51.460;7.008;2023-07-09T12:54:21;14.30;;;4.60;;
27533;SDS011;14973;51.460;7.008;2023-07-09T12:56:50;9.35;;;4.47;;
27533;SDS011;14973;51.460;7.008;2023-07-09T12:59:22;10.93;;;4.85;;
27533;SDS011;14973;51.460;7.008;2023-07-09T13:01:54;9.98;;;4.03;;
27533;SDS011;14973;51.460;7.008;2023-07-09T13:04:31;11.80;;;4.57;;
27533;SDS011;14973;51.460;7.008;2023-07-09T13:06:58;9.10;;;4.55;;
27533;SDS011;14973;51.460;7.008;2023-07-09T13:09:25;9.82;;;4.68;;
27533;SDS011;14973;51.460;7.008;2023-07-09T13:11:52;12.98;;;4.60;;
27533;SDS011;14973;51.460;7.008;2023-07-09T13:14:27;15.02;;;4.60;;
27533;SDS011;14973;51.460;7.008;2023-07-09T13:17:05;9.32;;;4.43;;
27533;SDS011;14973;51.460;7.008;2023-07-09T13:19:32;10.73;;;4.50;;
27533;SDS011;14973;51.460;7.008;2023-07-09T13:21:58;9.48;;;4.35;;
27533;SDS011;14973;51.460;7.008;2023-07-09T13:24:25;17.83;;;4.68;;
27533;SDS011;14973;51.460;7.008;2023-07-09T13:26:54;11.85;;;4.30;;
27533;SDS011;14973;51.460;7.008;2023-07-09T13:29:23;7.53;;;5.00;;
27533;SDS011;14973;51.460;7.008;2023-07-09T13:31:48;10.70;;;5.20;;
27533;SDS011;14973;51.460;7.008;2023-07-09T13:34:22;11.93;;;5.15;;
27533;SDS011;14973;51.460;7.008;2023-07-09T13:36:49;16.58;;;5.05;;
27533;SDS011;14973;51.460;7.008;2023-07-09T13:39:16;15.52;;;4.80;;
27533;SDS011;14973;51.460;7.008;2023-07-09T13:41:42;17.08;;;5.28;;
27533;SDS011;14973;51.460;7.008;2023-07-09T13:44:18;12.07;;;5.28;;
27533;SDS011;14973;51.460;7.008;2023-07-09T13:46:46;13.05;;;5.32;;
27533;SDS011;14973;51.460;7.008;2023-07-09T13:49:13;9.77;;;5.45;;
27533;SDS011;14973;51.460;7.008;2023-07-09T13:51:42;12.63;;;5.18;;
27533;SDS011;14973;51.460;7.008;2023-07-09T13:54:43;10.45;;;5.53;;
27533;SDS011;14973;51.460;7.008;2023-07-09T13:57:03;19.25;;;6.40;;
27533;SDS011;14973;51.460;7.008;2023-07-09T13:59:30;13.35;;;5.30;;
27533;SDS011;14973;51.460;7.008;2023-07-09T14:01:56;9.25;;;5.60;;
27533;SDS011;14973;51.460;7.008;2023-07-09T14:04:24;15.43;;;5.43;;
27533;SDS011;14973;51.460;7.008;2023-07-09T14:06:51;8.32;;;5.03;;
27533;SDS011;14973;51.460;7.008;2023-07-09T14:09:17;20.42;;;5.78;;
27533;SDS011;14973;51.460;7.008;2023-07-09T14:11:47;14.48;;;5.40;;
27533;SDS011;14973;51.460;7.008;2023-07-09T14:16:44;14.35;;;6.03;;
27533;SDS011;14973;51.460;7.008;2023-07-09T14:19:12;15.70;;;6.30;;
27533;SDS011;14973;51.460;7.008;2023-07-09T14:21:40;20.98;;;6.82;;
27533;SDS011;14973;51.460;7.008;2023-07-09T14:24:22;20.30;;;6.88;;
27533;SDS011;14973;51.460;7.008;2023-07-09T14:26:55;21.90;;;6.80;;
27533;SDS011;14973;51.460;7.008;2023-07-09T14:29:23;21.45;;;8.20;;
27533;SDS011;14973;51.460;7.008;2023-07-09T14:31:49;18.80;;;6.15;;
27533;SDS011;14973;51.460;7.008;2023-07-09T14:34:22;17.95;;;5.65;;
27533;SDS011;14973;51.460;7.008;2023-07-09T14:36:50;18.00;;;6.32;;
27533;SDS011;14973;51.460;7.008;2023-07-09T14:39:17;21.20;;;6.40;;
27533;SDS011;14973;51.460;7.008;2023-07-09T14:41:43;14.63;;;6.40;;
27533;SDS011;14973;51.460;7.008;2023-07-09T14:44:26;16.90;;;5.57;;
27533;SDS011;14973;51.460;7.008;2023-07-09T14:46:54;17.77;;;7.18;;
27533;SDS011;14973;51.460;7.008;2023-07-09T14:49:20;19.00;;;6.65;;
27533;SDS011;14973;51.460;7.008;2023-07-09T14:51:47;16.33;;;7.03;;
27533;SDS011;14973;51.460;7.008;2023-07-09T14:54:24;17.98;;;6.70;;
27533;SDS011;14973;51.460;7.008;2023-07-09T14:56:54;20.15;;;6.97;;
27533;SDS011;14973;51.460;7.008;2023-07-09T14:59:21;17.65;;;7.30;;
27533;SDS011;14973;51.460;7.008;2023-07-09T15:01:47;13.93;;;7.20;;
27533;SDS011;14973;51.460;7.008;2023-07-09T15:06:50;13.90;;;7.68;;
27533;SDS011;14973;51.460;7.008;2023-07-09T15:09:19;15.00;;;7.03;;
27533;SDS011;14973;51.460;7.008;2023-07-09T15:11:46;13.52;;;7.63;;
27533;SDS011;14973;51.460;7.008;2023-07-09T15:14:14;21.45;;;8.48;;
27533;SDS011;14973;51.460;7.008;2023-07-09T15:16:40;20.25;;;9.02;;
27533;SDS011;14973;51.460;7.008;2023-07-09T15:19:13;20.73;;;9.13;;
27533;SDS011;14973;51.460;7.008;2023-07-09T15:21:39;29.58;;;14.88;;
27533;SDS011;14973;51.460;7.008;2023-07-09T15:24:08;41.42;;;12.95;;
27533;SDS011;14973;51.460;7.008;2023-07-09T15:26:43;27.95;;;10.68;;
27533;SDS011;14973;51.460;7.008;2023-07-09T15:29:17;29.08;;;11.73;;